sensor_id;sensor_type;location;lat;lon;timestamp;temperature;humidity
21563;DHT22;10942;47.894;11.424;2022-12-13T00:00:47;-9.60;99.90
21563;DHT22;10942;47.894;11.424;2022-12-13T00:03:13;-9.70;99.90
21563;DHT22;10942;47.894;11.424;2022-12-13T00:05:43;-9.60;99.90
21563;DHT22;10942;47.894;11.424;2022-12-13T00:08:09;-9.70;99.90
21563;DHT22;10942;47.894;11.424;2022-12-13T00:10:35;-9.70;99.90
21563;DHT22;10942;47.894;11.424;2022-12-13T00:13:00;-9.70;99.90
21563;DHT22;10942;47.894;11.424;2022-12-13T00:15:26;-9.80;99.90
21563;DHT22;10942;47.894;11.424;2022-12-13T00:17:52;-9.80;99.90
21563;DHT22;10942;47.894;11.424;2022-12-13T00:20:17;-9.80;99.90
21563;DHT22;10942;47.894;11.424;2022-12-13T00:22:44;-9.80;99.90
21563;DHT22;10942;47.894;11.424;2022-12-13T00:25:09;-9.80;99.90
21563;DHT22;10942;47.894;11.424;2022-12-13T00:27:35;-10.00;99.90
21563;DHT22;10942;47.894;11.424;2022-12-13T00:30:01;-10.00;99.90
21563;DHT22;10942;47.894;11.424;2022-12-13T00:32:27;-10.00;99.90
21563;DHT22;10942;47.894;11.424;2022-12-13T00:34:52;-10.00;99.90
21563;DHT22;10942;47.894;11.424;2022-12-13T00:37:18;-10.00;99.90
21563;DHT22;10942;47.894;11.424;2022-12-13T00:39:44;-10.00;99.90
21563;DHT22;10942;47.894;11.424;2022-12-13T00:42:09;-10.00;99.90
21563;DHT22;10942;47.894;11.424;2022-12-13T00:44:36;-10.00;99.90
21563;DHT22;10942;47.894;11.424;2022-12-13T00:47:02;-10.00;99.90
21563;DHT22;10942;47.894;11.424;2022-12-13T00:49:28;-10.00;99.90
21563;DHT22;10942;47.894;11.424;2022-12-13T00:51:53;-10.00;99.90
21563;DHT22;10942;47.894;11.424;2022-12-13T00:54:19;-10.10;99.90
21563;DHT22;10942;47.894;11.424;2022-12-13T00:56:45;-10.10;99.90
21563;DHT22;10942;47.894;11.424;2022-12-13T00:59:13;-10.10;99.90
21563;DHT22;10942;47.894;11.424;2022-12-13T01:01:39;-10.10;99.90
21563;DHT22;10942;47.894;11.424;2022-12-13T01:04:05;-10.10;99.90
21563;DHT22;10942;47.894;11.424;2022-12-13T01:06:40;-10.10;99.90
21563;DHT22;10942;47.894;11.424;2022-12-13T01:09:12;-10.10;99.90
21563;DHT22;10942;47.894;11.424;2022-12-13T01:11:39;-10.10;99.90
21563;DHT22;10942;47.894;11.424;2022-12-13T01:14:05;-10.20;99.90
21563;DHT22;10942;47.894;11.424;2022-12-13T01:16:30;-10.20;99.90
21563;DHT22;10942;47.894;11.424;2022-12-13T01:18:57;-10.20;99.90
21563;DHT22;10942;47.894;11.424;2022-12-13T01:21:23;-10.20;99.90
21563;DHT22;10942;47.894;11.424;2022-12-13T01:23:49;-10.20;99.90
21563;DHT22;10942;47.894;11.424;2022-12-13T01:26:18;-10.10;99.90
21563;DHT22;10942;47.894;11.424;2022-12-13T01:28:44;-10.20;99.90
21563;DHT22;10942;47.894;11.424;2022-12-13T01:31:12;-10.20;99.90
21563;DHT22;10942;47.894;11.424;2022-12-13T01:36:08;-10.30;99.90
21563;DHT22;10942;47.894;11.424;2022-12-13T01:38:34;-10.30;99.90
21563;DHT22;10942;47.894;11.424;2022-12-13T01:43:50;-10.30;99.90
21563;DHT22;10942;47.894;11.424;2022-12-13T01:46:17;-10.40;99.90
21563;DHT22;10942;47.894;11.424;2022-12-13T01:51:15;-10.60;99.90
21563;DHT22;10942;47.894;11.424;2022-12-13T01:53:43;-10.50;99.90
21563;DHT22;10942;47.894;11.424;2022-12-13T01:56:18;-10.50;99.90
21563;DHT22;10942;47.894;11.424;2022-12-13T01:58:45;-10.50;99.90
21563;DHT22;10942;47.894;11.424;2022-12-13T02:01:11;-10.50;99.90
21563;DHT22;10942;47.894;11.424;2022-12-13T02:03:37;-10.50;99.90
21563;DHT22;10942;47.894;11.424;2022-12-13T02:06:40;-10.50;99.90
21563;DHT22;10942;47.894;11.424;2022-12-13T02:08:57;-10.50;99.90
21563;DHT22;10942;47.894;11.424;2022-12-13T02:11:25;-10.50;99.90
21563;DHT22;10942;47.894;11.424;2022-12-13T02:13:52;-10.50;99.90
21563;DHT22;10942;47.894;11.424;2022-12-13T02:16:32;-10.50;99.90
21563;DHT22;10942;47.894;11.424;2022-12-13T02:30:43;-10.50;99.90
21563;DHT22;10942;47.894;11.424;2022-12-13T02:33:22;-10.50;99.90
21563;DHT22;10942;47.894;11.424;2022-12-13T02:44:04;-10.40;99.90
21563;DHT22;10942;47.894;11.424;2022-12-13T02:46:34;-10.40;99.90
21563;DHT22;10942;47.894;11.424;2022-12-13T02:49:02;-10.40;99.90
21563;DHT22;10942;47.894;11.424;2022-12-13T02:51:30;-10.50;99.90
21563;DHT22;10942;47.894;11.424;2022-12-13T02:53:56;-10.50;99.90
21563;DHT22;10942;47.894;11.424;2022-12-13T02:56:22;-10.50;99.90
21563;DHT22;10942;47.894;11.424;2022-12-13T02:58:52;-10.50;99.90
21563;DHT22;10942;47.894;11.424;2022-12-13T03:01:46;-10.50;99.90
21563;DHT22;10942;47.894;11.424;2022-12-13T03:15:20;-10.50;99.90
21563;DHT22;10942;47.894;11.424;2022-12-13T03:20:27;-10.60;99.90
21563;DHT22;10942;47.894;11.424;2022-12-13T03:22:54;-10.50;99.90
21563;DHT22;10942;47.894;11.424;2022-12-13T03:25:22;-10.50;99.90
21563;DHT22;10942;47.894;11.424;2022-12-13T03:27:47;-10.50;99.90
21563;DHT22;10942;47.894;11.424;2022-12-13T03:30:13;-10.50;99.90
21563;DHT22;10942;47.894;11.424;2022-12-13T03:32:39;-10.50;99.90
21563;DHT22;10942;47.894;11.424;2022-12-13T03:35:05;-10.50;99.90
21563;DHT22;10942;47.894;11.424;2022-12-13T03:37:31;-10.50;99.90
21563;DHT22;10942;47.894;11.424;2022-12-13T03:39:58;-10.60;99.90
21563;DHT22;10942;47.894;11.424;2022-12-13T03:42:24;-10.60;99.90
21563;DHT22;10942;47.894;11.424;2022-12-13T03:44:50;-10.60;99.90
21563;DHT22;10942;47.894;11.424;2022-12-13T03:47:16;-10.60;99.90
21563;DHT22;10942;47.894;11.424;2022-12-13T03:49:42;-10.60;99.90
21563;DHT22;10942;47.894;11.424;2022-12-13T03:52:08;-10.60;99.90
21563;DHT22;10942;47.894;11.424;2022-12-13T03:54:33;-10.60;99.90
21563;DHT22;10942;47.894;11.424;2022-12-13T03:56:59;-10.70;99.90
21563;DHT22;10942;47.894;11.424;2022-12-13T03:59:26;-10.70;99.90
21563;DHT22;10942;47.894;11.424;2022-12-13T04:01:51;-10.70;99.90
21563;DHT22;10942;47.894;11.424;2022-12-13T04:04:17;-10.70;99.90
21563;DHT22;10942;47.894;11.424;2022-12-13T04:06:43;-10.70;99.90
21563;DHT22;10942;47.894;11.424;2022-12-13T04:09:09;-10.80;99.90
21563;DHT22;10942;47.894;11.424;2022-12-13T04:11:34;-10.70;99.90
21563;DHT22;10942;47.894;11.424;2022-12-13T04:14:19;-10.80;99.90
21563;DHT22;10942;47.894;11.424;2022-12-13T04:16:44;-10.80;99.90
21563;DHT22;10942;47.894;11.424;2022-12-13T04:19:10;-10.80;99.90
21563;DHT22;10942;47.894;11.424;2022-12-13T04:21:36;-10.80;99.90
21563;DHT22;10942;47.894;11.424;2022-12-13T04:24:01;-10.80;99.90
21563;DHT22;10942;47.894;11.424;2022-12-13T04:26:28;-10.90;99.90
21563;DHT22;10942;47.894;11.424;2022-12-13T04:28:54;-10.90;99.90
21563;DHT22;10942;47.894;11.424;2022-12-13T04:31:19;-10.90;99.90
21563;DHT22;10942;47.894;11.424;2022-12-13T04:33:45;-10.90;99.90
21563;DHT22;10942;47.894;11.424;2022-12-13T04:36:11;-10.90;99.90
21563;DHT22;10942;47.894;11.424;2022-12-13T04:38:47;-11.00;99.90
21563;DHT22;10942;47.894;11.424;2022-12-13T04:41:15;-10.90;99.90
21563;DHT22;10942;47.894;11.424;2022-12-13T04:43:41;-10.90;99.90
21563;DHT22;10942;47.894;11.424;2022-12-13T04:46:06;-11.00;99.90
21563;DHT22;10942;47.894;11.424;2022-12-13T04:48:32;-11.00;99.90
21563;DHT22;10942;47.894;11.424;2022-12-13T04:51:00;-11.00;99.90
21563;DHT22;10942;47.894;11.424;2022-12-13T04:53:26;-11.00;99.90
21563;DHT22;10942;47.894;11.424;2022-12-13T04:55:52;-11.00;99.90
21563;DHT22;10942;47.894;11.424;2022-12-13T04:58:18;-11.00;99.90
21563;DHT22;10942;47.894;11.424;2022-12-13T05:00:45;-11.00;99.90
21563;DHT22;10942;47.894;11.424;2022-12-13T05:03:11;-11.00;99.90
21563;DHT22;10942;47.894;11.424;2022-12-13T05:05:40;-11.00;99.90
21563;DHT22;10942;47.894;11.424;2022-12-13T05:08:06;-11.00;99.90
21563;DHT22;10942;47.894;11.424;2022-12-13T05:10:33;-11.00;99.90
21563;DHT22;10942;47.894;11.424;2022-12-13T05:13:00;-11.00;99.90
21563;DHT22;10942;47.894;11.424;2022-12-13T05:15:25;-11.00;99.90
21563;DHT22;10942;47.894;11.424;2022-12-13T05:17:51;-11.00;99.90
21563;DHT22;10942;47.894;11.424;2022-12-13T05:20:17;-11.00;99.90
21563;DHT22;10942;47.894;11.424;2022-12-13T05:22:43;-11.00;99.90
21563;DHT22;10942;47.894;11.424;2022-12-13T05:25:09;-11.00;99.90
21563;DHT22;10942;47.894;11.424;2022-12-13T05:27:35;-11.00;99.90
21563;DHT22;10942;47.894;11.424;2022-12-13T05:30:01;-11.00;99.90
21563;DHT22;10942;47.894;11.424;2022-12-13T05:32:27;-11.00;99.90
21563;DHT22;10942;47.894;11.424;2022-12-13T05:34:52;-11.00;99.90
21563;DHT22;10942;47.894;11.424;2022-12-13T05:37:18;-11.00;99.90
21563;DHT22;10942;47.894;11.424;2022-12-13T05:39:44;-11.00;99.90
21563;DHT22;10942;47.894;11.424;2022-12-13T05:42:10;-11.00;99.90
21563;DHT22;10942;47.894;11.424;2022-12-13T05:44:35;-11.00;99.90
21563;DHT22;10942;47.894;11.424;2022-12-13T05:47:01;-11.00;99.90
21563;DHT22;10942;47.894;11.424;2022-12-13T05:49:27;-11.00;99.90
21563;DHT22;10942;47.894;11.424;2022-12-13T05:51:52;-11.00;99.90
21563;DHT22;10942;47.894;11.424;2022-12-13T05:54:18;-11.10;99.90
21563;DHT22;10942;47.894;11.424;2022-12-13T05:56:44;-11.10;99.90
21563;DHT22;10942;47.894;11.424;2022-12-13T05:59:09;-11.10;99.90
21563;DHT22;10942;47.894;11.424;2022-12-13T06:01:35;-11.10;99.90
21563;DHT22;10942;47.894;11.424;2022-12-13T06:04:01;-11.10;99.90
21563;DHT22;10942;47.894;11.424;2022-12-13T06:06:27;-11.10;99.90
21563;DHT22;10942;47.894;11.424;2022-12-13T06:08:52;-11.10;99.90
21563;DHT22;10942;47.894;11.424;2022-12-13T06:11:18;-11.10;99.90
21563;DHT22;10942;47.894;11.424;2022-12-13T06:13:44;-11.10;99.90
21563;DHT22;10942;47.894;11.424;2022-12-13T06:16:14;-11.10;99.90
21563;DHT22;10942;47.894;11.424;2022-12-13T06:18:39;-11.10;99.90
21563;DHT22;10942;47.894;11.424;2022-12-13T06:21:06;-11.10;99.90
21563;DHT22;10942;47.894;11.424;2022-12-13T06:23:33;-11.10;99.90
21563;DHT22;10942;47.894;11.424;2022-12-13T06:26:04;-11.10;99.90
21563;DHT22;10942;47.894;11.424;2022-12-13T06:28:30;-11.10;99.90
21563;DHT22;10942;47.894;11.424;2022-12-13T06:31:02;-11.10;99.90
21563;DHT22;10942;47.894;11.424;2022-12-13T06:33:29;-11.00;99.90
21563;DHT22;10942;47.894;11.424;2022-12-13T06:35:56;-11.00;99.90
21563;DHT22;10942;47.894;11.424;2022-12-13T06:38:22;-11.00;99.90
21563;DHT22;10942;47.894;11.424;2022-12-13T06:40:48;-10.90;99.90
21563;DHT22;10942;47.894;11.424;2022-12-13T06:43:14;-10.90;99.90
21563;DHT22;10942;47.894;11.424;2022-12-13T06:45:40;-10.90;99.90
21563;DHT22;10942;47.894;11.424;2022-12-13T06:48:05;-10.80;99.90
21563;DHT22;10942;47.894;11.424;2022-12-13T06:50:33;-10.80;99.90
21563;DHT22;10942;47.894;11.424;2022-12-13T06:52:59;-10.80;99.90
21563;DHT22;10942;47.894;11.424;2022-12-13T06:55:24;-10.70;99.90
21563;DHT22;10942;47.894;11.424;2022-12-13T06:57:50;-10.70;99.90
21563;DHT22;10942;47.894;11.424;2022-12-13T07:00:16;-10.60;99.90
21563;DHT22;10942;47.894;11.424;2022-12-13T07:02:42;-10.60;99.90
21563;DHT22;10942;47.894;11.424;2022-12-13T07:05:09;-10.60;99.90
21563;DHT22;10942;47.894;11.424;2022-12-13T07:07:34;-10.50;99.90
21563;DHT22;10942;47.894;11.424;2022-12-13T07:10:00;-10.50;99.90
21563;DHT22;10942;47.894;11.424;2022-12-13T07:12:26;-10.40;99.90
21563;DHT22;10942;47.894;11.424;2022-12-13T07:14:51;-10.40;99.90
21563;DHT22;10942;47.894;11.424;2022-12-13T07:17:17;-10.30;99.90
21563;DHT22;10942;47.894;11.424;2022-12-13T07:19:43;-10.20;99.90
21563;DHT22;10942;47.894;11.424;2022-12-13T07:22:09;-10.20;99.90
21563;DHT22;10942;47.894;11.424;2022-12-13T07:24:34;-10.20;99.90
21563;DHT22;10942;47.894;11.424;2022-12-13T07:27:01;-10.10;99.90
21563;DHT22;10942;47.894;11.424;2022-12-13T07:29:27;-9.90;99.90
21563;DHT22;10942;47.894;11.424;2022-12-13T07:31:53;-9.70;99.90
21563;DHT22;10942;47.894;11.424;2022-12-13T07:34:18;-9.50;99.90
21563;DHT22;10942;47.894;11.424;2022-12-13T07:36:44;-9.30;99.90
21563;DHT22;10942;47.894;11.424;2022-12-13T07:39:10;-9.10;99.90
21563;DHT22;10942;47.894;11.424;2022-12-13T07:41:36;-8.80;99.90
21563;DHT22;10942;47.894;11.424;2022-12-13T07:44:01;-8.70;99.90
21563;DHT22;10942;47.894;11.424;2022-12-13T07:46:27;-8.50;99.90
21563;DHT22;10942;47.894;11.424;2022-12-13T07:48:53;-8.30;99.90
21563;DHT22;10942;47.894;11.424;2022-12-13T07:51:18;-8.20;99.90
21563;DHT22;10942;47.894;11.424;2022-12-13T07:53:44;-8.00;99.90
21563;DHT22;10942;47.894;11.424;2022-12-13T07:56:11;-7.80;99.90
21563;DHT22;10942;47.894;11.424;2022-12-13T07:58:37;-7.60;99.90
21563;DHT22;10942;47.894;11.424;2022-12-13T08:01:05;-7.50;99.90
21563;DHT22;10942;47.894;11.424;2022-12-13T08:03:33;-7.50;99.90
21563;DHT22;10942;47.894;11.424;2022-12-13T08:06:03;-7.40;99.90
21563;DHT22;10942;47.894;11.424;2022-12-13T08:08:30;-7.40;99.90
21563;DHT22;10942;47.894;11.424;2022-12-13T08:13:55;-7.40;99.90
21563;DHT22;10942;47.894;11.424;2022-12-13T08:16:20;-7.30;99.90
21563;DHT22;10942;47.894;11.424;2022-12-13T08:18:46;-7.30;99.90
21563;DHT22;10942;47.894;11.424;2022-12-13T08:21:12;-7.30;99.90
21563;DHT22;10942;47.894;11.424;2022-12-13T08:23:40;-7.20;99.90
21563;DHT22;10942;47.894;11.424;2022-12-13T08:26:05;-7.10;99.90
21563;DHT22;10942;47.894;11.424;2022-12-13T08:28:32;-7.20;99.90
21563;DHT22;10942;47.894;11.424;2022-12-13T08:31:06;-7.10;99.90
21563;DHT22;10942;47.894;11.424;2022-12-13T08:33:33;-7.10;99.90
21563;DHT22;10942;47.894;11.424;2022-12-13T08:36:09;-7.20;99.90
21563;DHT22;10942;47.894;11.424;2022-12-13T08:38:35;-7.10;99.90
21563;DHT22;10942;47.894;11.424;2022-12-13T08:41:02;-6.90;99.90
21563;DHT22;10942;47.894;11.424;2022-12-13T08:43:28;-6.80;99.90
21563;DHT22;10942;47.894;11.424;2022-12-13T08:45:54;-6.70;99.90
21563;DHT22;10942;47.894;11.424;2022-12-13T08:48:19;-6.60;99.90
21563;DHT22;10942;47.894;11.424;2022-12-13T08:50:45;-6.60;99.90
21563;DHT22;10942;47.894;11.424;2022-12-13T08:53:11;-6.50;99.90
21563;DHT22;10942;47.894;11.424;2022-12-13T08:55:36;-6.50;99.90
21563;DHT22;10942;47.894;11.424;2022-12-13T08:58:05;-6.40;99.90
21563;DHT22;10942;47.894;11.424;2022-12-13T09:00:36;-6.40;99.90
21563;DHT22;10942;47.894;11.424;2022-12-13T09:03:03;-6.40;99.90
21563;DHT22;10942;47.894;11.424;2022-12-13T09:05:29;-6.40;99.90
21563;DHT22;10942;47.894;11.424;2022-12-13T09:07:56;-6.40;99.90
21563;DHT22;10942;47.894;11.424;2022-12-13T09:10:23;-6.30;99.90
21563;DHT22;10942;47.894;11.424;2022-12-13T09:12:50;-6.30;99.90
21563;DHT22;10942;47.894;11.424;2022-12-13T09:15:16;-6.00;99.90
21563;DHT22;10942;47.894;11.424;2022-12-13T09:17:42;-5.90;99.90
21563;DHT22;10942;47.894;11.424;2022-12-13T09:20:09;-5.70;99.90
21563;DHT22;10942;47.894;11.424;2022-12-13T09:22:36;-5.50;99.90
21563;DHT22;10942;47.894;11.424;2022-12-13T09:25:04;-5.40;99.90
21563;DHT22;10942;47.894;11.424;2022-12-13T09:27:30;-5.20;99.90
21563;DHT22;10942;47.894;11.424;2022-12-13T09:29:57;-5.10;99.90
21563;DHT22;10942;47.894;11.424;2022-12-13T09:32:23;-5.00;99.90
21563;DHT22;10942;47.894;11.424;2022-12-13T09:34:49;-4.60;99.90
21563;DHT22;10942;47.894;11.424;2022-12-13T09:37:16;-4.60;99.90
21563;DHT22;10942;47.894;11.424;2022-12-13T09:39:42;-4.30;99.90
21563;DHT22;10942;47.894;11.424;2022-12-13T09:42:20;-4.10;99.90
21563;DHT22;10942;47.894;11.424;2022-12-13T09:45:02;-3.90;99.90
21563;DHT22;10942;47.894;11.424;2022-12-13T09:47:34;-3.80;99.90
21563;DHT22;10942;47.894;11.424;2022-12-13T09:50:00;-3.60;99.90
21563;DHT22;10942;47.894;11.424;2022-12-13T09:52:34;-3.50;99.90
21563;DHT22;10942;47.894;11.424;2022-12-13T09:55:00;-3.50;99.90
21563;DHT22;10942;47.894;11.424;2022-12-13T09:57:28;-3.40;99.90
21563;DHT22;10942;47.894;11.424;2022-12-13T09:59:55;-3.10;99.90
21563;DHT22;10942;47.894;11.424;2022-12-13T10:02:27;-3.10;99.90
21563;DHT22;10942;47.894;11.424;2022-12-13T10:04:53;-3.10;99.90
21563;DHT22;10942;47.894;11.424;2022-12-13T10:07:23;-3.00;99.90
21563;DHT22;10942;47.894;11.424;2022-12-13T10:09:59;-3.00;99.90
21563;DHT22;10942;47.894;11.424;2022-12-13T10:12:28;-3.00;99.90
21563;DHT22;10942;47.894;11.424;2022-12-13T10:14:57;-2.90;99.90
21563;DHT22;10942;47.894;11.424;2022-12-13T10:17:27;-2.80;99.90
21563;DHT22;10942;47.894;11.424;2022-12-13T10:19:55;-3.10;99.90
21563;DHT22;10942;47.894;11.424;2022-12-13T10:22:22;-2.90;99.90
21563;DHT22;10942;47.894;11.424;2022-12-13T10:25:01;-2.80;99.90
21563;DHT22;10942;47.894;11.424;2022-12-13T10:27:44;-2.80;99.90
21563;DHT22;10942;47.894;11.424;2022-12-13T10:37:46;-2.70;99.90
21563;DHT22;10942;47.894;11.424;2022-12-13T10:40:23;-3.00;99.90
21563;DHT22;10942;47.894;11.424;2022-12-13T10:45:30;-2.80;99.90
21563;DHT22;10942;47.894;11.424;2022-12-13T10:47:56;-3.00;99.90
21563;DHT22;10942;47.894;11.424;2022-12-13T10:50:25;-2.80;99.90
21563;DHT22;10942;47.894;11.424;2022-12-13T10:52:52;-3.00;99.90
21563;DHT22;10942;47.894;11.424;2022-12-13T10:55:36;-3.10;99.90
21563;DHT22;10942;47.894;11.424;2022-12-13T10:58:04;-3.20;99.90
21563;DHT22;10942;47.894;11.424;2022-12-13T11:00:44;-3.20;99.90
21563;DHT22;10942;47.894;11.424;2022-12-13T11:03:59;-3.20;99.90
21563;DHT22;10942;47.894;11.424;2022-12-13T11:06:27;-3.30;99.90
21563;DHT22;10942;47.894;11.424;2022-12-13T11:08:53;-3.40;99.90
21563;DHT22;10942;47.894;11.424;2022-12-13T11:11:29;-3.70;99.90
21563;DHT22;10942;47.894;11.424;2022-12-13T11:13:57;-3.80;99.90
21563;DHT22;10942;47.894;11.424;2022-12-13T11:16:30;-3.80;99.90
21563;DHT22;10942;47.894;11.424;2022-12-13T11:19:16;-3.80;99.90
21563;DHT22;10942;47.894;11.424;2022-12-13T11:21:49;-4.00;99.90
21563;DHT22;10942;47.894;11.424;2022-12-13T11:24:24;-4.20;99.90
21563;DHT22;10942;47.894;11.424;2022-12-13T11:26:56;-4.20;99.90
21563;DHT22;10942;47.894;11.424;2022-12-13T11:32:02;-4.20;99.90
21563;DHT22;10942;47.894;11.424;2022-12-13T11:39:57;-4.40;99.90
21563;DHT22;10942;47.894;11.424;2022-12-13T11:45:11;-4.60;99.90
21563;DHT22;10942;47.894;11.424;2022-12-13T11:50:18;-4.70;99.90
21563;DHT22;10942;47.894;11.424;2022-12-13T11:52:55;-4.70;99.90
21563;DHT22;10942;47.894;11.424;2022-12-13T11:55:39;-4.70;99.90
21563;DHT22;10942;47.894;11.424;2022-12-13T11:58:26;-4.70;99.90
21563;DHT22;10942;47.894;11.424;2022-12-13T12:01:04;-4.70;99.90
21563;DHT22;10942;47.894;11.424;2022-12-13T12:04:36;-4.70;99.90
21563;DHT22;10942;47.894;11.424;2022-12-13T12:07:28;-4.60;99.90
21563;DHT22;10942;47.894;11.424;2022-12-13T12:09:52;-4.50;99.90
21563;DHT22;10942;47.894;11.424;2022-12-13T12:12:26;-4.60;99.90
21563;DHT22;10942;47.894;11.424;2022-12-13T12:15:11;-4.50;99.90
21563;DHT22;10942;47.894;11.424;2022-12-13T12:17:40;-4.50;99.90
21563;DHT22;10942;47.894;11.424;2022-12-13T12:20:14;-4.30;99.90
21563;DHT22;10942;47.894;11.424;2022-12-13T12:28:30;-4.20;99.90
21563;DHT22;10942;47.894;11.424;2022-12-13T12:36:47;-4.20;99.90
21563;DHT22;10942;47.894;11.424;2022-12-13T12:53:05;-4.30;99.90
21563;DHT22;10942;47.894;11.424;2022-12-13T12:55:37;-4.20;99.90
21563;DHT22;10942;47.894;11.424;2022-12-13T13:03:23;-4.20;99.90
21563;DHT22;10942;47.894;11.424;2022-12-13T13:06:03;-4.20;99.90
21563;DHT22;10942;47.894;11.424;2022-12-13T13:08:49;-4.20;99.90
21563;DHT22;10942;47.894;11.424;2022-12-13T13:11:16;-4.20;99.90
21563;DHT22;10942;47.894;11.424;2022-12-13T13:26:36;-4.30;99.90
21563;DHT22;10942;47.894;11.424;2022-12-13T13:31:58;-4.30;99.90
21563;DHT22;10942;47.894;11.424;2022-12-13T13:34:32;-4.30;99.90
21563;DHT22;10942;47.894;11.424;2022-12-13T13:36:59;-4.40;99.90
21563;DHT22;10942;47.894;11.424;2022-12-13T13:50:15;-4.50;99.90
21563;DHT22;10942;47.894;11.424;2022-12-13T13:56:15;-4.60;99.90
21563;DHT22;10942;47.894;11.424;2022-12-13T14:07:58;-4.70;99.90
21563;DHT22;10942;47.894;11.424;2022-12-13T14:13:38;-4.80;99.90
21563;DHT22;10942;47.894;11.424;2022-12-13T14:27:08;-5.00;99.90
21563;DHT22;10942;47.894;11.424;2022-12-13T14:29:41;-5.00;99.90
21563;DHT22;10942;47.894;11.424;2022-12-13T14:32:20;-5.00;99.90
21563;DHT22;10942;47.894;11.424;2022-12-13T14:34:47;-5.10;99.90
21563;DHT22;10942;47.894;11.424;2022-12-13T14:40:01;-5.10;99.90
21563;DHT22;10942;47.894;11.424;2022-12-13T14:42:32;-5.20;99.90
21563;DHT22;10942;47.894;11.424;2022-12-13T14:45:24;-5.20;99.90
21563;DHT22;10942;47.894;11.424;2022-12-13T14:47:52;-5.20;99.90
21563;DHT22;10942;47.894;11.424;2022-12-13T14:50:19;-5.30;99.90
21563;DHT22;10942;47.894;11.424;2022-12-13T14:52:46;-5.30;99.90
21563;DHT22;10942;47.894;11.424;2022-12-13T14:55:40;-5.40;99.90
21563;DHT22;10942;47.894;11.424;2022-12-13T14:58:18;-5.60;99.90
21563;DHT22;10942;47.894;11.424;2022-12-13T15:00:43;-5.60;99.90
21563;DHT22;10942;47.894;11.424;2022-12-13T15:03:20;-5.60;99.90
21563;DHT22;10942;47.894;11.424;2022-12-13T15:05:55;-5.60;99.90
21563;DHT22;10942;47.894;11.424;2022-12-13T15:08:21;-5.60;99.90
21563;DHT22;10942;47.894;11.424;2022-12-13T15:10:53;-5.80;99.90
21563;DHT22;10942;47.894;11.424;2022-12-13T15:15:55;-5.80;99.90
21563;DHT22;10942;47.894;11.424;2022-12-13T15:18:23;-5.90;99.90
21563;DHT22;10942;47.894;11.424;2022-12-13T15:20:53;-6.00;99.90
21563;DHT22;10942;47.894;11.424;2022-12-13T15:23:36;-5.90;99.90
21563;DHT22;10942;47.894;11.424;2022-12-13T15:26:13;-6.10;99.90
21563;DHT22;10942;47.894;11.424;2022-12-13T15:28:42;-6.10;99.90
21563;DHT22;10942;47.894;11.424;2022-12-13T15:31:08;-6.10;99.90
21563;DHT22;10942;47.894;11.424;2022-12-13T15:33:34;-6.10;99.90
21563;DHT22;10942;47.894;11.424;2022-12-13T15:36:26;-6.20;99.90
21563;DHT22;10942;47.894;11.424;2022-12-13T15:41:35;-6.20;99.90
21563;DHT22;10942;47.894;11.424;2022-12-13T15:44:14;-6.30;99.90
21563;DHT22;10942;47.894;11.424;2022-12-13T15:46:44;-6.30;99.90
21563;DHT22;10942;47.894;11.424;2022-12-13T15:49:37;-6.40;99.90
21563;DHT22;10942;47.894;11.424;2022-12-13T15:54:37;-6.40;99.90
21563;DHT22;10942;47.894;11.424;2022-12-13T15:57:22;-6.40;99.90
21563;DHT22;10942;47.894;11.424;2022-12-13T16:00:05;-6.40;99.90
21563;DHT22;10942;47.894;11.424;2022-12-13T16:07:48;-6.40;99.90
21563;DHT22;10942;47.894;11.424;2022-12-13T16:10:17;-6.40;99.90
21563;DHT22;10942;47.894;11.424;2022-12-13T16:13:02;-6.50;99.90
21563;DHT22;10942;47.894;11.424;2022-12-13T16:15:52;-6.50;99.90
21563;DHT22;10942;47.894;11.424;2022-12-13T16:18:50;-6.50;99.90
21563;DHT22;10942;47.894;11.424;2022-12-13T16:21:15;-6.60;99.90
21563;DHT22;10942;47.894;11.424;2022-12-13T16:23:41;-6.60;99.90
21563;DHT22;10942;47.894;11.424;2022-12-13T16:26:13;-6.60;99.90
21563;DHT22;10942;47.894;11.424;2022-12-13T16:28:42;-6.60;99.90
21563;DHT22;10942;47.894;11.424;2022-12-13T16:31:17;-6.70;99.90
21563;DHT22;10942;47.894;11.424;2022-12-13T16:33:45;-6.70;99.90
21563;DHT22;10942;47.894;11.424;2022-12-13T16:36:11;-6.70;99.90
21563;DHT22;10942;47.894;11.424;2022-12-13T16:38:37;-6.70;99.90
21563;DHT22;10942;47.894;11.424;2022-12-13T16:41:02;-6.70;99.90
21563;DHT22;10942;47.894;11.424;2022-12-13T16:43:30;-6.80;99.90
21563;DHT22;10942;47.894;11.424;2022-12-13T16:45:56;-6.80;99.90
21563;DHT22;10942;47.894;11.424;2022-12-13T16:48:22;-6.80;99.90
21563;DHT22;10942;47.894;11.424;2022-12-13T16:50:50;-6.90;99.90
21563;DHT22;10942;47.894;11.424;2022-12-13T16:53:16;-6.90;99.90
21563;DHT22;10942;47.894;11.424;2022-12-13T16:55:43;-6.90;99.90
21563;DHT22;10942;47.894;11.424;2022-12-13T16:58:11;-7.00;99.90
21563;DHT22;10942;47.894;11.424;2022-12-13T17:00:38;-7.00;99.90
21563;DHT22;10942;47.894;11.424;2022-12-13T17:03:05;-7.00;99.90
21563;DHT22;10942;47.894;11.424;2022-12-13T17:05:33;-7.00;99.90
21563;DHT22;10942;47.894;11.424;2022-12-13T17:08:00;-7.00;99.90
21563;DHT22;10942;47.894;11.424;2022-12-13T17:10:26;-7.10;99.90
21563;DHT22;10942;47.894;11.424;2022-12-13T17:12:52;-7.00;99.90
21563;DHT22;10942;47.894;11.424;2022-12-13T17:15:18;-7.00;99.90
21563;DHT22;10942;47.894;11.424;2022-12-13T17:17:45;-7.10;99.90
21563;DHT22;10942;47.894;11.424;2022-12-13T17:20:14;-7.10;99.90
21563;DHT22;10942;47.894;11.424;2022-12-13T17:22:41;-7.00;99.90
21563;DHT22;10942;47.894;11.424;2022-12-13T17:25:08;-7.10;99.90
21563;DHT22;10942;47.894;11.424;2022-12-13T17:27:34;-7.10;99.90
21563;DHT22;10942;47.894;11.424;2022-12-13T17:30:00;-7.10;99.90
21563;DHT22;10942;47.894;11.424;2022-12-13T17:32:26;-7.20;99.90
21563;DHT22;10942;47.894;11.424;2022-12-13T17:34:52;-7.20;99.90
21563;DHT22;10942;47.894;11.424;2022-12-13T17:37:18;-7.20;99.90
21563;DHT22;10942;47.894;11.424;2022-12-13T17:39:44;-7.20;99.90
21563;DHT22;10942;47.894;11.424;2022-12-13T17:42:10;-7.20;99.90
21563;DHT22;10942;47.894;11.424;2022-12-13T17:44:35;-7.10;99.90
21563;DHT22;10942;47.894;11.424;2022-12-13T17:47:02;-7.10;99.90
21563;DHT22;10942;47.894;11.424;2022-12-13T17:49:28;-7.10;99.90
21563;DHT22;10942;47.894;11.424;2022-12-13T17:51:54;-7.10;99.90
21563;DHT22;10942;47.894;11.424;2022-12-13T17:54:21;-7.10;99.90
21563;DHT22;10942;47.894;11.424;2022-12-13T17:56:48;-7.10;99.90
21563;DHT22;10942;47.894;11.424;2022-12-13T17:59:14;-7.10;99.90
21563;DHT22;10942;47.894;11.424;2022-12-13T18:01:41;-7.10;99.90
21563;DHT22;10942;47.894;11.424;2022-12-13T18:04:08;-7.10;99.90
21563;DHT22;10942;47.894;11.424;2022-12-13T18:06:34;-7.20;99.90
21563;DHT22;10942;47.894;11.424;2022-12-13T18:09:01;-7.20;99.90